Time;durP1;ratioP1;P1;durP2;ratioP2;P2;SDS_P1;SDS_P2;PMS_P1;PMS_P2;Temp;Humidity;BMP_temperature;BMP_pressure;BME280_temperature;BME280_humidity;BME280_pressure;Samples;Min_cycle;Max_cycle;Signal;HPM_P1;HPM_P2
2023/12/02 00:01:53;;;;;;;109.63;67.20;;;;;;;3.30;100.00;98951.75;5091156;28;20024;-72
2023/12/02 00:04:18;;;;;;;120.00;68.20;;;;;;;3.18;100.00;98935.63;5091135;28;20024;-73
2023/12/02 00:06:44;;;;;;;121.30;67.97;;;;;;;3.20;100.00;98927.84;5092296;28;20019;-72
2023/12/02 00:09:10;;;;;;;131.23;71.35;;;;;;;3.31;100.00;98919.41;5085968;28;20024;-72
2023/12/02 00:11:36;;;;;;;112.97;69.03;;;;;;;3.47;100.00;98937.38;5072964;28;20515;-73
2023/12/02 00:14:01;;;;;;;121.18;69.88;;;;;;;3.16;100.00;98931.50;5090773;28;20105;-73
2023/12/02 00:16:27;;;;;;;122.43;71.30;;;;;;;3.46;100.00;98946.81;5072991;28;20020;-72
2023/12/02 00:18:52;;;;;;;115.05;66.70;;;;;;;3.40;100.00;98956.31;5092888;28;20114;-72
2023/12/02 00:21:17;;;;;;;115.13;67.25;;;;;;;3.28;100.00;98950.41;5093039;28;20487;-72
2023/12/02 00:23:43;;;;;;;117.47;68.18;;;;;;;3.29;100.00;98939.03;5092943;28;20385;-73
2023/12/02 00:26:08;;;;;;;117.10;65.43;;;;;;;3.29;100.00;98908.63;5092992;28;20062;-73
2023/12/02 00:28:34;;;;;;;110.22;64.90;;;;;;;3.53;100.00;98910.47;5107607;28;20024;-73
2023/12/02 00:30:59;;;;;;;100.18;61.67;;;;;;;3.71;100.00;98919.06;5090768;28;20035;-73
2023/12/02 00:33:25;;;;;;;103.20;59.78;;;;;;;3.56;100.00;98906.28;5072744;28;20024;-73
2023/12/02 00:35:50;;;;;;;108.40;60.40;;;;;;;3.60;100.00;98919.22;5108886;28;20028;-73
2023/12/02 00:38:16;;;;;;;109.22;61.00;;;;;;;3.40;100.00;98909.31;5094175;28;20381;-73
2023/12/02 00:40:41;;;;;;;107.68;60.78;;;;;;;3.15;100.00;98905.81;5092800;28;20469;-73
2023/12/02 00:43:07;;;;;;;94.70;58.20;;;;;;;3.34;100.00;98916.03;5076481;28;20112;-73
2023/12/02 00:45:32;;;;;;;101.85;59.28;;;;;;;3.39;100.00;98907.66;5094543;28;20051;-73
2023/12/02 00:47:58;;;;;;;108.20;63.72;;;;;;;3.27;100.00;98913.66;5076189;28;20028;-73
2023/12/02 00:50:23;;;;;;;126.57;69.68;;;;;;;3.33;100.00;98908.88;5094321;28;20028;-73
2023/12/02 00:52:49;;;;;;;108.78;62.85;;;;;;;3.37;100.00;98899.66;5076222;28;20032;-73
2023/12/02 00:55:14;;;;;;;109.10;62.55;;;;;;;3.51;100.00;98894.19;5093070;28;20081;-73
2023/12/02 00:57:39;;;;;;;100.47;59.63;;;;;;;3.06;100.00;98885.50;5076250;28;20093;-72
2023/12/02 01:00:05;;;;;;;100.72;56.85;;;;;;;3.45;100.00;98895.41;5076079;28;20028;-73
2023/12/02 01:02:31;;;;;;;99.22;57.72;;;;;;;3.45;100.00;98869.69;5076086;28;20036;-72
2023/12/02 01:04:56;;;;;;;98.53;54.22;;;;;;;3.67;100.00;98890.34;5094051;28;20027;-72
2023/12/02 01:07:22;;;;;;;95.28;55.50;;;;;;;3.64;100.00;98858.59;5103041;28;20035;-73
2023/12/02 01:09:47;;;;;;;98.88;55.25;;;;;;;3.81;100.00;98879.31;5114456;28;20023;-73
2023/12/02 01:12:13;;;;;;;95.22;54.13;;;;;;;3.55;100.00;98871.47;5096248;28;20028;-73
2023/12/02 01:14:38;;;;;;;90.50;54.28;;;;;;;3.57;100.00;98885.81;5094361;28;20461;-72
2023/12/02 01:17:04;;;;;;;97.32;53.50;;;;;;;3.61;100.00;98875.78;5094023;28;20028;-72
2023/12/02 01:19:29;;;;;;;89.95;53.60;;;;;;;3.66;100.00;98881.22;5075897;28;20016;-72
2023/12/02 01:21:55;;;;;;;94.82;53.20;;;;;;;3.75;100.00;98898.78;5093499;28;20027;-73
2023/12/02 01:24:20;;;;;;;99.60;56.80;;;;;;;3.78;100.00;98905.63;5079852;28;20034;-73
2023/12/02 01:26:45;;;;;;;151.35;75.05;;;;;;;3.45;100.00;98911.19;5094243;28;20035;-73
2023/12/02 01:29:11;;;;;;;130.50;69.13;;;;;;;3.46;100.00;98885.97;5095874;28;20031;-73
2023/12/02 01:31:36;;;;;;;106.88;60.47;;;;;;;3.15;100.00;98875.44;5112391;28;20039;-73
2023/12/02 01:34:02;;;;;;;109.00;59.15;;;;;;;3.22;100.00;98910.97;5111182;28;20035;-73
2023/12/02 01:36:27;;;;;;;107.22;59.75;;;;;;;3.34;100.00;98911.34;5093509;28;20408;-73
2023/12/02 01:38:53;;;;;;;99.18;56.08;;;;;;;3.18;100.00;98898.84;5093461;28;20078;-73
2023/12/02 01:41:18;;;;;;;91.60;57.80;;;;;;;2.86;100.00;98895.72;5092029;28;20113;-72
2023/12/02 01:43:44;;;;;;;98.22;59.05;;;;;;;2.80;100.00;98897.72;5075330;28;20020;-73
2023/12/02 01:46:13;;;;;;;96.38;56.63;;;;;;;2.97;100.00;98913.00;5093493;28;20044;-73
2023/12/02 01:48:39;;;;;;;97.85;57.33;;;;;;;2.89;100.00;98900.66;5093233;28;20027;-73
2023/12/02 01:51:05;;;;;;;97.25;56.92;;;;;;;2.94;100.00;98917.16;5075016;28;20118;-73
2023/12/02 01:53:30;;;;;;;97.00;53.42;;;;;;;3.06;100.00;98911.19;5101515;28;20488;-73
2023/12/02 01:55:56;;;;;;;97.75;55.15;;;;;;;3.19;100.00;98894.97;5079797;28;20092;-73
2023/12/02 01:58:22;;;;;;;88.57;52.33;;;;;;;3.27;100.00;98899.03;5091210;28;20107;-72
2023/12/02 02:00:47;;;;;;;89.75;53.13;;;;;;;3.37;100.00;98918.19;5093049;28;20554;-72
2023/12/02 02:03:12;;;;;;;96.00;55.38;;;;;;;3.46;100.00;98907.28;5075035;28;20024;-73
2023/12/02 02:05:38;;;;;;;91.70;50.67;;;;;;;3.38;100.00;98900.50;5109100;28;20386;-73
2023/12/02 02:08:04;;;;;;;89.38;53.72;;;;;;;3.46;100.00;98908.09;5095083;28;20031;-73
2023/12/02 02:10:29;;;;;;;91.68;52.38;;;;;;;3.44;100.00;98902.06;5110780;28;20081;-72
2023/12/02 02:12:55;;;;;;;102.25;55.10;;;;;;;3.47;100.00;98895.91;5074720;28;20584;-72
2023/12/02 02:15:20;;;;;;;97.30;51.03;;;;;;;3.51;100.00;98880.38;5088160;28;20027;-73
2023/12/02 02:17:46;;;;;;;93.68;52.03;;;;;;;3.56;100.00;98879.47;5113289;28;20093;-73
2023/12/02 02:20:12;;;;;;;91.97;51.75;;;;;;;3.51;100.00;98871.25;5112790;28;20030;-73
2023/12/02 02:22:38;;;;;;;87.07;51.55;;;;;;;3.59;100.00;98880.78;5094823;28;20030;-73
2023/12/02 02:25:04;;;;;;;102.15;55.67;;;;;;;3.49;100.00;98888.13;5112731;28;20044;-72
2023/12/02 02:27:31;;;;;;;91.88;51.05;;;;;;;3.35;100.00;98868.75;5094815;28;20023;-73
2023/12/02 02:29:57;;;;;;;112.43;72.00;;;;;;;3.15;100.00;98867.13;5092598;28;20035;-72
2023/12/02 02:32:22;;;;;;;97.38;58.05;;;;;;;3.39;100.00;98862.59;5092553;28;20548;-73
2023/12/02 02:34:48;;;;;;;100.28;55.10;;;;;;;3.49;100.00;98859.66;5085053;28;20024;-73
2023/12/02 02:37:14;;;;;;;94.25;53.42;;;;;;;3.59;100.00;98844.84;5092476;28;20024;-73
2023/12/02 02:39:39;;;;;;;92.53;55.83;;;;;;;3.69;100.00;98847.41;5092303;28;20065;-73
2023/12/02 02:42:08;;;;;;;88.70;52.10;;;;;;;3.64;100.00;98847.53;5074074;28;20435;-73
2023/12/02 02:44:34;;;;;;;97.43;52.97;;;;;;;3.69;100.00;98828.06;5093522;28;20035;-73
2023/12/02 02:47:00;;;;;;;93.00;53.38;;;;;;;3.52;100.00;98828.63;5092155;28;20035;-73
2023/12/02 02:49:25;;;;;;;94.15;53.03;;;;;;;3.42;100.00;98807.53;5074013;28;20020;-72
2023/12/02 02:51:51;;;;;;;80.60;49.42;;;;;;;3.25;100.00;98793.44;5074000;28;20024;-73
2023/12/02 02:54:16;;;;;;;89.65;52.53;;;;;;;3.27;100.00;98799.50;5073973;28;20481;-73
2023/12/02 02:56:43;;;;;;;84.60;49.92;;;;;;;3.39;100.00;98790.72;5073907;28;20028;-73
2023/12/02 02:59:09;;;;;;;85.75;50.28;;;;;;;3.12;100.00;98773.75;5073600;28;20027;-73
2023/12/02 03:01:34;;;;;;;88.82;52.13;;;;;;;2.99;100.00;98782.81;5092051;28;20035;-73
2023/12/02 03:04:00;;;;;;;84.57;48.35;;;;;;;3.07;100.00;98773.84;5077385;28;20160;-73
2023/12/02 03:06:26;;;;;;;90.03;49.17;;;;;;;2.99;100.00;98766.25;5073652;28;20028;-73
2023/12/02 03:08:51;;;;;;;85.88;49.80;;;;;;;3.22;100.00;98790.16;5091780;28;20024;-72
2023/12/02 03:11:16;;;;;;;83.93;49.13;;;;;;;3.05;100.00;98781.63;5073629;28;20122;-73
2023/12/02 03:13:42;;;;;;;163.80;97.70;;;;;;;3.23;100.00;98805.63;5073697;28;20413;-72
2023/12/02 03:16:08;;;;;;;97.43;57.60;;;;;;;3.30;100.00;98808.00;5088215;28;20027;-72
2023/12/02 03:18:33;;;;;;;78.28;47.30;;;;;;;3.06;100.00;98805.38;5092857;28;20028;-73
2023/12/02 03:20:59;;;;;;;74.78;47.35;;;;;;;3.07;100.00;98818.88;5093671;28;20035;-73
2023/12/02 03:23:25;;;;;;;75.53;46.88;;;;;;;3.01;100.00;98810.97;5112039;28;20112;-73
2023/12/02 03:25:51;;;;;;;84.85;48.67;;;;;;;2.92;100.00;98800.59;5094373;28;20492;-72
2023/12/02 03:28:18;;;;;;;85.05;47.53;;;;;;;2.91;100.00;98795.38;5091529;28;20043;-72
2023/12/02 03:30:43;;;;;;;79.50;48.35;;;;;;;2.93;100.00;98807.78;5091602;28;20035;-73
2023/12/02 03:33:09;;;;;;;76.35;47.30;;;;;;;2.84;100.00;98773.66;5091288;28;20024;-73
2023/12/02 03:35:34;;;;;;;75.22;48.13;;;;;;;3.03;100.00;98797.69;5077813;28;20035;-73
2023/12/02 03:38:00;;;;;;;78.45;47.80;;;;;;;2.91;100.00;98809.19;5073204;28;20020;-73
2023/12/02 03:40:25;;;;;;;90.60;55.75;;;;;;;2.87;100.00;98808.97;5091408;28;20024;-73
2023/12/02 03:42:51;;;;;;;76.25;47.40;;;;;;;2.97;100.00;98815.47;5072913;28;20048;-73
2023/12/02 03:45:16;;;;;;;71.85;42.22;;;;;;;3.07;100.00;98804.25;5098349;28;20039;-73
2023/12/02 03:47:42;;;;;;;75.03;44.70;;;;;;;3.27;100.00;98802.28;5111488;28;20027;-73
2023/12/02 03:50:09;;;;;;;68.90;42.42;;;;;;;3.15;100.00;98792.50;5077978;28;20028;-72
2023/12/02 03:52:34;;;;;;;69.10;42.50;;;;;;;3.27;100.00;98805.03;5091156;28;20024;-72
2023/12/02 03:55:00;;;;;;;76.50;46.22;;;;;;;3.09;100.00;98808.34;5091205;28;20609;-73
2023/12/02 03:57:25;;;;;;;85.85;51.45;;;;;;;2.97;100.00;98785.06;5091243;28;20446;-72
2023/12/02 03:59:51;;;;;;;79.78;49.35;;;;;;;2.86;100.00;98796.28;5073384;28;20412;-72
2023/12/02 04:02:17;;;;;;;74.55;43.80;;;;;;;2.77;100.00;98787.84;5072929;28;20032;-72
2023/12/02 04:04:42;;;;;;;82.05;48.55;;;;;;;2.85;100.00;98805.69;5078537;28;20035;-72
2023/12/02 04:07:09;;;;;;;86.78;51.58;;;;;;;2.86;100.00;98795.47;5091030;28;20169;-73
2023/12/02 04:09:34;;;;;;;83.53;50.03;;;;;;;2.82;100.00;98789.72;5072876;28;20020;-72
2023/12/02 04:12:00;;;;;;;93.53;52.00;;;;;;;2.66;100.00;98776.16;5072877;28;20393;-73
2023/12/02 04:14:25;;;;;;;112.85;57.83;;;;;;;2.71;100.00;98791.00;5091363;28;20060;-73
2023/12/02 04:16:50;;;;;;;91.53;52.38;;;;;;;2.73;100.00;98785.97;5097159;28;20031;-72
2023/12/02 04:19:17;;;;;;;86.95;48.33;;;;;;;2.78;100.00;98761.88;5115519;28;20028;-73
2023/12/02 04:21:44;;;;;;;135.82;65.40;;;;;;;2.98;100.00;98783.94;5109786;28;20402;-72
2023/12/02 04:24:10;;;;;;;111.20;55.00;;;;;;;2.76;100.00;98800.03;5093049;28;20472;-73
2023/12/02 04:26:41;;;;;;;85.88;50.05;;;;;;;2.76;100.00;98807.47;5076939;28;20124;-72
2023/12/02 04:29:06;;;;;;;91.03;50.95;;;;;;;2.96;100.00;98809.13;5094931;28;20024;-73
2023/12/02 04:31:32;;;;;;;88.00;49.85;;;;;;;3.00;100.00;98812.91;5076825;28;20028;-72
2023/12/02 04:33:57;;;;;;;90.32;46.20;;;;;;;3.06;100.00;98814.47;5094760;28;20028;-72
2023/12/02 04:36:23;;;;;;;89.40;49.72;;;;;;;3.21;100.00;98829.97;5112810;28;20034;-73
2023/12/02 04:38:48;;;;;;;96.35;48.47;;;;;;;2.97;100.00;98818.22;5096719;28;20464;-73
2023/12/02 04:41:13;;;;;;;89.47;52.08;;;;;;;2.90;100.00;98829.66;5092254;28;20048;-73
2023/12/02 04:43:39;;;;;;;98.95;54.38;;;;;;;2.92;100.00;98791.50;5094676;28;20107;-72
2023/12/02 04:46:06;;;;;;;91.43;51.88;;;;;;;3.06;100.00;98808.13;5094636;28;20040;-72
2023/12/02 04:48:33;;;;;;;89.05;48.67;;;;;;;2.94;100.00;98792.00;5076224;28;20020;-72
2023/12/02 04:50:59;;;;;;;85.35;49.33;;;;;;;2.62;100.00;98790.84;5076364;28;20073;-72
2023/12/02 04:53:24;;;;;;;244.45;116.65;;;;;;;3.01;100.00;98836.66;5076485;28;20028;-73
2023/12/02 04:55:52;;;;;;;344.80;160.95;;;;;;;2.88;100.00;98804.28;5094841;28;20101;-73
2023/12/02 04:58:18;;;;;;;133.52;75.47;;;;;;;2.63;100.00;98818.16;5105444;28;20028;-72
2023/12/02 05:00:44;;;;;;;106.47;64.65;;;;;;;2.50;100.00;98800.41;5114732;28;20058;-72
2023/12/02 05:03:10;;;;;;;105.82;60.47;;;;;;;2.15;100.00;98794.25;5096282;28;20051;-73
2023/12/02 05:05:36;;;;;;;99.53;53.85;;;;;;;2.26;100.00;98811.47;5080847;28;20028;-73
2023/12/02 05:08:01;;;;;;;119.05;58.22;;;;;;;2.51;100.00;98804.81;5096262;28;20023;-73
2023/12/02 05:10:26;;;;;;;104.93;54.85;;;;;;;2.59;100.00;98763.81;5107344;28;20031;-72
2023/12/02 05:12:52;;;;;;;99.13;57.83;;;;;;;2.62;100.00;98746.66;5075851;28;20031;-72
2023/12/02 05:15:17;;;;;;;105.90;63.50;;;;;;;2.91;100.00;98776.88;5093482;28;20026;-72
2023/12/02 05:17:45;;;;;;;114.75;65.15;;;;;;;2.93;100.00;98771.88;5085181;28;20118;-72
2023/12/02 05:20:12;;;;;;;134.95;80.32;;;;;;;2.70;100.00;98756.22;5092687;28;20027;-72
2023/12/02 05:22:39;;;;;;;120.93;74.45;;;;;;;2.95;100.00;98780.66;5093907;28;20027;-72
2023/12/02 05:25:06;;;;;;;126.53;70.90;;;;;;;2.97;100.00;98783.13;5103144;28;20089;-72
2023/12/02 05:27:32;;;;;;;112.25;65.55;;;;;;;2.87;100.00;98797.91;5077835;28;20059;-72
2023/12/02 05:29:58;;;;;;;92.00;56.08;;;;;;;2.81;100.00;98790.84;5097980;28;20071;-72
2023/12/02 05:32:23;;;;;;;86.65;50.63;;;;;;;2.64;100.00;98778.38;5089015;28;20039;-73
2023/12/02 05:34:49;;;;;;;86.93;47.83;;;;;;;2.62;100.00;98775.09;5093365;28;20487;-72
2023/12/02 05:37:14;;;;;;;74.25;45.92;;;;;;;2.66;100.00;98792.72;5114113;28;20027;-72
2023/12/02 05:39:40;;;;;;;73.28;46.22;;;;;;;2.48;100.00;98768.69;5094970;28;20123;-72
2023/12/02 05:42:05;;;;;;;80.68;45.28;;;;;;;2.50;100.00;98774.72;5094860;28;20050;-72
2023/12/02 05:44:30;;;;;;;68.80;42.17;;;;;;;2.62;100.00;98797.19;5095629;28;20028;-72
2023/12/02 05:46:56;;;;;;;72.57;42.80;;;;;;;2.71;100.00;98796.50;5112592;28;20031;-72
2023/12/02 05:49:21;;;;;;;77.00;46.13;;;;;;;2.59;100.00;98761.06;5112860;28;20023;-72
2023/12/02 05:51:47;;;;;;;70.47;42.20;;;;;;;2.50;100.00;98775.56;5113723;28;20530;-72
2023/12/02 05:54:12;;;;;;;79.63;46.80;;;;;;;2.57;100.00;98755.00;5113627;28;20023;-72
2023/12/02 05:56:38;;;;;;;77.20;45.70;;;;;;;2.90;100.00;98771.63;5112098;28;20080;-72
2023/12/02 05:59:04;;;;;;;72.13;42.35;;;;;;;2.87;100.00;98769.47;5090567;28;20028;-72
2023/12/02 06:01:29;;;;;;;79.63;46.53;;;;;;;2.88;100.00;98769.16;5081716;28;20030;-72
2023/12/02 06:03:55;;;;;;;86.35;45.80;;;;;;;2.93;100.00;98752.53;5075749;28;20023;-72
2023/12/02 06:06:21;;;;;;;81.95;44.03;;;;;;;2.90;100.00;98768.88;5093900;28;20035;-73
2023/12/02 06:08:46;;;;;;;92.63;51.08;;;;;;;2.95;100.00;98785.34;5080717;28;20028;-73
2023/12/02 06:11:12;;;;;;;114.95;57.45;;;;;;;3.02;100.00;98785.81;5108258;28;20495;-72
2023/12/02 06:13:37;;;;;;;118.57;64.25;;;;;;;3.14;100.00;98785.34;5111889;28;20016;-73
2023/12/02 06:16:03;;;;;;;131.30;77.15;;;;;;;3.19;100.00;98768.66;5103975;28;20030;-73
2023/12/02 06:18:28;;;;;;;115.15;64.45;;;;;;;3.06;100.00;98778.53;5092411;28;20088;-72
2023/12/02 06:20:54;;;;;;;130.13;73.50;;;;;;;2.80;100.00;98772.63;5112535;28;20039;-72
2023/12/02 06:23:19;;;;;;;92.25;55.03;;;;;;;2.71;100.00;98777.19;5094169;28;20496;-72
2023/12/02 06:25:45;;;;;;;138.40;72.22;;;;;;;2.92;100.00;98794.25;5113106;28;20036;-73
2023/12/02 06:28:10;;;;;;;117.50;64.32;;;;;;;2.90;100.00;98786.28;5093413;28;20076;-72
2023/12/02 06:30:36;;;;;;;101.07;54.33;;;;;;;2.61;100.00;98789.22;5088382;28;20094;-72
2023/12/02 06:33:01;;;;;;;86.85;50.42;;;;;;;2.80;100.00;98809.34;5092534;28;20036;-73
2023/12/02 06:35:27;;;;;;;115.55;75.53;;;;;;;3.00;100.00;98801.03;5082663;28;20491;-72
2023/12/02 06:37:52;;;;;;;101.82;57.30;;;;;;;2.94;100.00;98776.25;5111902;28;20069;-72
2023/12/02 06:40:18;;;;;;;92.32;51.67;;;;;;;3.08;100.00;98769.97;5093707;28;20023;-72
2023/12/02 06:42:44;;;;;;;106.47;53.10;;;;;;;3.41;100.00;98783.78;5110924;28;20508;-74
2023/12/02 06:45:09;;;;;;;90.22;52.67;;;;;;;3.41;100.00;98783.78;5111099;28;20024;-73
2023/12/02 06:47:36;;;;;;;96.35;51.15;;;;;;;3.50;100.00;98792.19;5096601;28;20035;-73
2023/12/02 06:50:06;;;;;;;96.85;55.08;;;;;;;3.68;100.00;98809.00;5083654;28;20028;-72
2023/12/02 06:52:32;;;;;;;153.70;79.90;;;;;;;3.59;100.00;98798.66;5111071;28;20040;-72
2023/12/02 06:54:58;;;;;;;138.18;71.28;;;;;;;3.64;100.00;98806.84;5093480;28;20036;-72
2023/12/02 06:57:23;;;;;;;132.48;77.88;;;;;;;3.83;100.00;98810.66;5107599;28;20111;-71
2023/12/02 06:59:51;;;;;;;194.23;104.75;;;;;;;3.93;100.00;98810.47;5103908;28;20024;-71
2023/12/02 07:02:16;;;;;;;172.95;96.50;;;;;;;4.05;100.00;98827.38;5109513;28;20543;-73
2023/12/02 07:04:42;;;;;;;126.00;74.82;;;;;;;4.04;100.00;98831.28;5082504;28;20115;-73
2023/12/02 07:07:07;;;;;;;124.25;71.93;;;;;;;4.14;100.00;98823.91;5099878;28;20076;-71
2023/12/02 07:09:33;;;;;;;161.30;77.38;;;;;;;4.21;100.00;98841.72;5095414;28;20514;-71
2023/12/02 07:11:58;;;;;;;150.75;75.10;;;;;;;4.21;100.00;98829.81;5098009;28;20420;-70
2023/12/02 07:14:24;;;;;;;120.25;70.50;;;;;;;4.08;100.00;98820.41;5094652;28;20085;-73
2023/12/02 07:16:49;;;;;;;125.78;71.38;;;;;;;4.09;100.00;98830.34;5085810;28;20080;-76
2023/12/02 07:19:14;;;;;;;151.02;81.13;;;;;;;4.12;100.00;98818.66;5079091;28;20023;-72
2023/12/02 07:21:40;;;;;;;121.82;69.03;;;;;;;4.03;100.00;98826.03;5091935;28;20035;-70
2023/12/02 07:24:06;;;;;;;122.50;71.75;;;;;;;3.99;100.00;98814.78;5111818;28;20061;-72
2023/12/02 07:26:31;;;;;;;116.20;65.55;;;;;;;3.96;100.00;98814.56;5087942;28;20492;-71
2023/12/02 07:28:57;;;;;;;114.80;66.10;;;;;;;3.92;100.00;98797.75;5086291;28;20461;-72
2023/12/02 07:31:22;;;;;;;123.45;65.40;;;;;;;4.04;100.00;98795.28;5092310;28;20024;-71
2023/12/02 07:33:48;;;;;;;156.02;85.43;;;;;;;3.75;100.00;98803.88;5092994;28;20076;-71
2023/12/02 07:36:13;;;;;;;146.68;85.00;;;;;;;3.82;100.00;98812.63;5106730;28;20081;-70
2023/12/02 07:38:40;;;;;;;127.75;69.80;;;;;;;3.92;100.00;98814.34;5091334;28;20077;-69
2023/12/02 07:41:07;;;;;;;125.20;72.40;;;;;;;3.91;100.00;98823.78;5072838;28;20133;-70
2023/12/02 07:43:33;;;;;;;128.98;76.65;;;;;;;4.00;100.00;98821.13;5091173;28;20024;-71
2023/12/02 07:45:58;;;;;;;112.55;70.60;;;;;;;3.91;100.00;98815.47;5086557;28;20088;-70
2023/12/02 07:48:24;;;;;;;121.30;71.20;;;;;;;3.95;100.00;98816.50;5090203;28;20027;-70
2023/12/02 07:50:49;;;;;;;135.77;78.03;;;;;;;4.01;100.00;98822.75;5093577;28;20024;-71
2023/12/02 07:53:15;;;;;;;139.68;80.13;;;;;;;3.89;100.00;98837.13;5076800;28;20024;-70
2023/12/02 07:55:40;;;;;;;151.55;78.63;;;;;;;3.97;100.00;98843.88;5090209;28;20042;-72
2023/12/02 07:58:06;;;;;;;132.57;73.20;;;;;;;4.08;100.00;98854.44;5103613;28;20026;-71
2023/12/02 08:00:31;;;;;;;125.18;73.22;;;;;;;4.25;100.00;98839.16;5100510;28;20036;-74
2023/12/02 08:02:57;;;;;;;126.75;65.65;;;;;;;4.26;100.00;98856.59;5091225;28;20043;-77
2023/12/02 08:05:22;;;;;;;116.20;64.20;;;;;;;4.20;100.00;98876.09;5076133;28;20039;-74
2023/12/02 08:07:48;;;;;;;152.05;83.70;;;;;;;4.16;100.00;98871.47;5086736;28;20036;-71
2023/12/02 08:10:13;;;;;;;121.85;73.85;;;;;;;4.14;100.00;98871.75;5098454;28;20231;-71
2023/12/02 08:12:39;;;;;;;133.88;74.28;;;;;;;4.10;100.00;98864.38;5103435;28;20031;-71
2023/12/02 08:15:09;;;;;;;123.47;66.30;;;;;;;3.92;100.00;98861.41;5095859;28;20063;-70
2023/12/02 08:17:35;;;;;;;102.28;63.53;;;;;;;3.86;100.00;98868.97;5078333;28;20080;-71
2023/12/02 08:20:05;;;;;;;84.18;54.17;;;;;;;3.85;100.00;98869.25;5105913;28;20461;-71
2023/12/02 08:22:31;;;;;;;87.60;53.50;;;;;;;3.81;100.00;98857.19;5104829;28;20030;-70
2023/12/02 08:24:57;;;;;;;133.98;69.95;;;;;;;3.64;100.00;98872.41;5099665;28;20036;-70
2023/12/02 08:27:23;;;;;;;107.25;62.47;;;;;;;3.71;100.00;98858.19;5107428;28;20038;-71
2023/12/02 08:29:48;;;;;;;102.45;59.92;;;;;;;3.85;100.00;98852.66;5092797;28;20110;-72
2023/12/02 08:32:14;;;;;;;91.25;55.17;;;;;;;3.96;100.00;98847.78;5109774;28;20031;-74
2023/12/02 08:34:39;;;;;;;86.72;55.55;;;;;;;4.13;100.00;98852.72;5097687;28;20479;-72
2023/12/02 08:37:06;;;;;;;89.95;57.13;;;;;;;4.28;100.00;98855.16;5110123;28;20107;-72
2023/12/02 08:39:31;;;;;;;97.30;54.85;;;;;;;4.33;100.00;98823.78;5102073;28;20453;-73
2023/12/02 08:41:57;;;;;;;100.60;54.20;;;;;;;4.53;100.00;98822.53;5100250;28;20060;-73
2023/12/02 08:44:25;;;;;;;86.78;52.38;;;;;;;4.57;100.00;98823.53;5079331;28;20028;-71
2023/12/02 08:46:52;;;;;;;114.35;62.90;;;;;;;4.69;100.00;98816.63;5097758;28;20492;-72
2023/12/02 08:49:18;;;;;;;89.72;49.63;;;;;;;4.70;100.00;98799.69;5095425;28;20451;-72
2023/12/02 08:51:44;;;;;;;88.50;52.25;;;;;;;4.81;100.00;98800.28;5100020;28;20028;-72
2023/12/02 08:54:09;;;;;;;166.43;94.95;;;;;;;4.89;100.00;98813.41;5076433;28;20434;-73
2023/12/02 08:56:35;;;;;;;118.93;65.97;;;;;;;4.80;100.00;98803.38;5093265;28;20032;-72
2023/12/02 08:59:01;;;;;;;102.82;58.15;;;;;;;4.91;100.00;98788.94;5074658;28;20030;-72
2023/12/02 09:01:27;;;;;;;113.07;62.50;;;;;;;5.02;100.00;98785.94;5087846;28;20579;-72
2023/12/02 09:03:53;;;;;;;138.00;87.80;;;;;;;5.06;100.00;98782.22;5103599;28;20030;-72
2023/12/02 09:06:19;;;;;;;98.70;53.58;;;;;;;5.00;100.00;98769.59;5099020;28;20030;-72
2023/12/02 09:08:47;;;;;;;87.03;52.03;;;;;;;5.03;100.00;98763.47;5091197;28;20027;-72
2023/12/02 09:11:13;;;;;;;105.80;74.03;;;;;;;5.17;100.00;98760.59;5098284;28;20020;-72
2023/12/02 09:13:46;;;;;;;100.70;64.72;;;;;;;5.23;100.00;98760.47;5104559;28;20407;-72
2023/12/02 09:16:21;;;;;;;108.00;73.70;;;;;;;5.30;100.00;98758.06;5104361;28;20425;-72
2023/12/02 09:18:47;;;;;;;121.90;83.93;;;;;;;5.44;100.00;98769.06;5100727;28;20403;-72
2023/12/02 09:21:21;;;;;;;90.20;59.22;;;;;;;5.54;100.00;98765.22;5102404;28;20462;-72
2023/12/02 09:23:48;;;;;;;86.78;52.88;;;;;;;5.53;100.00;98755.25;5102178;28;20039;-72
2023/12/02 09:26:28;;;;;;;90.22;52.58;;;;;;;5.39;100.00;98756.16;5077226;28;20588;-72
2023/12/02 09:28:54;;;;;;;117.70;62.03;;;;;;;5.12;100.00;98749.66;5091973;28;20038;-72
2023/12/02 09:31:20;;;;;;;108.85;62.42;;;;;;;5.36;100.00;98753.19;5108118;28;20447;-72
2023/12/02 09:33:48;;;;;;;110.82;63.88;;;;;;;5.54;100.00;98748.56;5111328;28;20503;-72
2023/12/02 09:36:35;;;;;;;109.53;66.32;;;;;;;5.67;100.00;98744.06;5088455;28;20400;-72
2023/12/02 09:39:09;;;;;;;129.45;76.15;;;;;;;5.75;100.00;98752.41;5090718;28;20024;-71
2023/12/02 09:41:35;;;;;;;123.40;68.20;;;;;;;5.65;100.00;98746.34;5099873;28;20101;-72
2023/12/02 09:44:10;;;;;;;105.28;62.90;;;;;;;5.61;100.00;98726.75;5085952;28;20091;-72
2023/12/02 09:47:20;;;;;;;125.60;71.75;;;;;;;5.66;100.00;98740.47;5098810;28;20118;-72
2023/12/02 09:50:22;;;;;;;134.60;73.47;;;;;;;5.74;100.00;98747.19;5083448;28;20123;-71
2023/12/02 09:53:09;;;;;;;152.95;79.57;;;;;;;5.73;100.00;98749.16;5065463;28;20457;-72
2023/12/02 09:55:53;;;;;;;127.20;67.10;;;;;;;5.86;100.00;98744.63;5108267;28;20034;-72
2023/12/02 09:58:26;;;;;;;86.43;50.05;;;;;;;6.00;100.00;98735.38;5079697;28;20039;-72
2023/12/02 10:01:10;;;;;;;84.70;52.20;;;;;;;6.04;100.00;98728.88;5110285;28;20572;-72
2023/12/02 10:03:48;;;;;;;73.25;46.75;;;;;;;6.09;100.00;98718.75;5085747;28;20052;-73
2023/12/02 10:06:22;;;;;;;105.10;57.75;;;;;;;6.06;100.00;98692.44;5085715;28;20023;-74
2023/12/02 10:08:53;;;;;;;99.85;55.35;;;;;;;5.94;100.00;98690.28;5108633;28;20086;-74
2023/12/02 10:11:30;;;;;;;106.25;56.38;;;;;;;6.15;100.00;98696.06;5092099;28;20030;-74
2023/12/02 10:14:02;;;;;;;120.90;54.58;;;;;;;6.27;100.00;98706.50;5095993;28;20032;-74
2023/12/02 10:16:32;;;;;;;81.63;47.97;;;;;;;6.35;100.00;98707.69;5107791;28;20036;-74
2023/12/02 10:19:00;;;;;;;91.93;47.78;;;;;;;6.42;100.00;98696.91;5108971;28;20498;-72
2023/12/02 10:21:29;;;;;;;108.93;58.08;;;;;;;6.49;100.00;98715.84;5108619;28;20076;-72
2023/12/02 10:24:04;;;;;;;353.48;156.23;;;;;;;6.47;100.00;98704.25;5109376;28;20504;-72
2023/12/02 10:26:58;;;;;;;166.18;94.95;;;;;;;6.47;100.00;98679.25;5102981;28;20066;-72
2023/12/02 10:29:42;;;;;;;397.70;186.18;;;;;;;6.62;100.00;98691.00;5099820;28;20103;-72
2023/12/02 10:32:07;;;;;;;224.20;109.90;;;;;;;6.59;100.00;98679.41;5088819;28;20027;-73
2023/12/02 10:34:42;;;;;;;246.10;123.20;;;;;;;6.66;100.00;98667.00;5095851;28;20031;-72
2023/12/02 10:37:11;;;;;;;301.77;154.30;;;;;;;6.89;100.00;98670.38;5099560;28;20038;-72
2023/12/02 10:39:46;;;;;;;294.70;190.20;;;;;;;7.11;100.00;98665.75;5103096;28;20445;-72
2023/12/02 10:42:27;;;;;;;108.53;66.45;;;;;;;7.26;100.00;98656.06;5079885;28;20096;-72
2023/12/02 10:45:06;;;;;;;134.55;81.72;;;;;;;7.40;100.00;98666.97;5080101;28;20039;-72
2023/12/02 10:47:32;;;;;;;101.55;60.22;;;;;;;7.56;100.00;98658.88;5100602;28;20125;-73
2023/12/02 10:50:01;;;;;;;71.18;44.13;;;;;;;7.65;100.00;98654.09;5108013;28;20036;-75
2023/12/02 10:52:28;;;;;;;63.80;41.03;;;;;;;7.73;100.00;98647.66;5079402;28;20065;-74
2023/12/02 10:55:01;;;;;;;152.07;80.78;;;;;;;7.92;100.00;98651.97;5089760;28;20059;-74
2023/12/02 10:57:27;;;;;;;67.20;42.20;;;;;;;7.94;100.00;98655.22;5097871;28;20102;-75
2023/12/02 10:59:58;;;;;;;84.97;46.95;;;;;;;7.69;100.00;98640.31;5100458;28;20401;-74
2023/12/02 11:02:37;;;;;;;75.32;46.50;;;;;;;7.91;100.00;98644.78;5082550;28;20023;-73
2023/12/02 11:05:21;;;;;;;71.10;45.50;;;;;;;8.00;100.00;98636.34;5080920;28;20019;-75
2023/12/02 11:07:54;;;;;;;75.35;40.97;;;;;;;8.04;100.00;98634.53;5078642;28;20541;-71
2023/12/02 11:10:42;;;;;;;57.13;37.13;;;;;;;7.95;100.00;98629.00;5094695;28;20603;-71
2023/12/02 11:13:12;;;;;;;48.95;33.88;;;;;;;7.96;100.00;98658.50;5095324;28;20579;-71